Time;durP1;ratioP1;P1;durP2;ratioP2;P2;SDS_P1;SDS_P2;PMS_P1;PMS_P2;Temp;Humidity;BMP_temperature;BMP_pressure;BME280_temperature;BME280_humidity;BME280_pressure;Samples;Min_cycle;Max_cycle;Signal;HPM_P1;HPM_P2
2022/02/08 00:01:20;;;;;;;11.23;1.40;;;;;;;-145.69;100.00;74456.00;5074752;28;20199;-77
2022/02/08 00:03:46;;;;;;;6.97;1.50;;;;;;;-145.69;100.00;74469.94;5074973;28;20199;-78
2022/02/08 00:06:28;;;;;;;6.07;1.90;;;;;;;-145.69;100.00;74388.31;5075197;28;20205;-77
2022/02/08 00:08:54;;;;;;;9.97;1.73;;;;;;;-145.69;100.00;74400.25;5075055;28;20313;-77
2022/02/08 00:11:21;;;;;;;3.83;1.63;;;;;;;-145.69;100.00;74402.25;5074863;28;20194;-77
2022/02/08 00:13:48;;;;;;;7.03;1.30;;;;;;;-145.69;100.00;74418.19;5074178;28;20194;-77
2022/02/08 00:16:15;;;;;;;23.20;1.73;;;;;;;-145.69;100.00;74408.22;5074783;28;20198;-77
2022/02/08 00:18:41;;;;;;;11.13;2.53;;;;;;;-145.69;100.00;74398.25;5075095;28;20211;-77
2022/02/08 00:21:08;;;;;;;6.23;1.47;;;;;;;-145.69;100.00;74394.28;5074910;28;20203;-77
2022/02/08 00:23:34;;;;;;;8.67;1.67;;;;;;;-145.69;100.00;74376.34;5089089;28;20233;-77
2022/02/08 00:26:01;;;;;;;7.00;1.53;;;;;;;-145.69;100.00;74360.44;5094840;28;20198;-78
2022/02/08 00:28:27;;;;;;;8.83;1.77;;;;;;;-145.69;100.00;74346.47;5085676;28;20612;-77
2022/02/08 00:30:55;;;;;;;6.23;1.60;;;;;;;-145.69;100.00;74336.53;5093257;28;20202;-78
2022/02/08 00:33:22;;;;;;;7.67;1.60;;;;;;;-145.69;100.00;74312.63;5094932;28;20198;-77
2022/02/08 00:35:48;;;;;;;7.07;1.57;;;;;;;-145.69;100.00;74302.69;5094579;28;20220;-77
2022/02/08 00:38:16;;;;;;;8.13;1.80;;;;;;;-145.69;100.00;74292.72;5094723;28;20213;-77
2022/02/08 00:40:44;;;;;;;10.93;1.80;;;;;;;-145.69;100.00;74288.75;5094000;28;20201;-77
2022/02/08 00:43:11;;;;;;;5.70;1.73;;;;;;;-145.69;100.00;74272.81;5094511;28;20218;-77
2022/02/08 00:45:49;;;;;;;4.20;1.60;;;;;;;-145.69;100.00;74276.78;5094630;28;20213;-77
2022/02/08 00:48:25;;;;;;;8.80;2.03;;;;;;;-145.69;100.00;74278.78;5094588;28;20235;-78
2022/02/08 00:50:52;;;;;;;7.30;1.93;;;;;;;-145.69;100.00;74282.75;5094434;28;20206;-77
2022/02/08 00:53:19;;;;;;;3.93;1.90;;;;;;;-145.69;100.00;74288.75;5094266;28;20194;-77
2022/02/08 00:55:46;;;;;;;4.63;1.43;;;;;;;-145.69;100.00;74282.75;5094527;28;20202;-78
2022/02/08 00:58:12;;;;;;;9.93;2.33;;;;;;;-145.69;100.00;74292.72;5093309;28;20198;-77
2022/02/08 01:00:39;;;;;;;6.73;2.03;;;;;;;-145.69;100.00;74308.66;5094432;28;20202;-77
2022/02/08 01:03:07;;;;;;;6.57;1.50;;;;;;;-145.69;100.00;74312.63;5093179;28;20671;-77
2022/02/08 01:05:41;;;;;;;7.40;1.50;;;;;;;-145.69;100.00;74294.72;5094052;28;20205;-77
2022/02/08 01:08:07;;;;;;;13.97;2.00;;;;;;;-145.69;100.00;74296.69;5094160;28;20304;-77
2022/02/08 01:10:37;;;;;;;6.03;1.50;;;;;;;-145.69;100.00;74296.69;5093975;28;20226;-77
2022/02/08 01:13:04;;;;;;;8.17;1.87;;;;;;;-145.69;100.00;74292.72;5094041;28;20194;-78
2022/02/08 01:15:31;;;;;;;13.10;1.90;;;;;;;-145.69;100.00;74292.72;5094082;28;20202;-78
2022/02/08 01:17:58;;;;;;;5.77;1.63;;;;;;;-145.69;100.00;74276.78;5094108;28;20209;-78
2022/02/08 01:20:31;;;;;;;12.60;2.33;;;;;;;-145.69;100.00;74282.75;5093725;28;20202;-78
2022/02/08 01:23:02;;;;;;;5.80;1.70;;;;;;;-145.69;100.00;74276.78;5093597;28;20244;-77
2022/02/08 01:25:32;;;;;;;7.23;1.47;;;;;;;-145.69;100.00;74276.78;5093906;28;20202;-77
2022/02/08 01:28:08;;;;;;;10.90;1.40;;;;;;;-145.69;100.00;74268.81;5093694;28;20205;-77
2022/02/08 01:30:45;;;;;;;9.93;1.27;;;;;;;-145.69;100.00;74254.88;5093602;28;20229;-77
2022/02/08 01:33:33;;;;;;;12.53;1.87;;;;;;;-145.69;100.00;74252.91;5093639;28;20201;-77
2022/02/08 01:36:24;;;;;;;8.30;1.47;;;;;;;-145.69;100.00;74256.88;5093463;28;20190;-77
2022/02/08 01:38:57;;;;;;;8.60;1.50;;;;;;;-145.69;100.00;74256.88;5093458;28;20194;-77
2022/02/08 01:41:36;;;;;;;13.93;2.00;;;;;;;-145.69;100.00;74254.88;5093102;28;20285;-77
2022/02/08 01:44:16;;;;;;;11.00;1.77;;;;;;;-145.69;100.00;74250.91;5093517;28;20232;-77
2022/02/08 01:46:59;;;;;;;5.87;1.40;;;;;;;-145.69;100.00;74258.88;5093123;28;20556;-77
2022/02/08 01:49:38;;;;;;;9.47;1.57;;;;;;;-145.69;100.00;74268.81;5093262;28;20275;-78
2022/02/08 01:52:06;;;;;;;11.20;1.97;;;;;;;-145.69;100.00;74258.88;5093496;28;20206;-78
2022/02/08 01:54:34;;;;;;;9.43;1.80;;;;;;;-145.69;100.00;74256.88;5093340;28;20224;-78
2022/02/08 01:57:00;;;;;;;10.60;1.43;;;;;;;-145.69;100.00;74262.84;5093176;28;20656;-77
2022/02/08 01:59:28;;;;;;;8.00;1.90;;;;;;;-145.69;100.00;74266.84;5092965;28;20194;-77
2022/02/08 02:01:54;;;;;;;6.97;1.70;;;;;;;-145.69;100.00;74270.81;5093238;28;20206;-77
2022/02/08 02:04:21;;;;;;;7.10;1.97;;;;;;;-145.69;100.00;74272.81;5092535;28;20190;-77
2022/02/08 02:06:47;;;;;;;8.60;1.50;;;;;;;-145.69;100.00;74270.81;5093245;28;20194;-77
2022/02/08 02:09:14;;;;;;;5.33;1.40;;;;;;;-145.69;100.00;74274.78;5093068;28;20562;-77
2022/02/08 02:11:42;;;;;;;6.87;1.50;;;;;;;-145.69;100.00;74278.78;5093136;28;20679;-77
2022/02/08 02:14:08;;;;;;;8.57;1.60;;;;;;;-145.69;100.00;74272.81;5092801;28;20213;-77
2022/02/08 02:16:46;;;;;;;10.87;1.40;;;;;;;-145.69;100.00;74268.81;5092757;28;20620;-78
2022/02/08 02:19:13;;;;;;;7.00;1.80;;;;;;;-145.69;100.00;74260.84;5092630;28;20201;-77
2022/02/08 02:21:39;;;;;;;10.00;2.70;;;;;;;-145.69;100.00;74268.81;5092813;28;20538;-77
2022/02/08 02:24:09;;;;;;;5.87;1.70;;;;;;;-145.69;100.00;74264.84;5092581;28;20230;-78
2022/02/08 02:26:35;;;;;;;6.33;1.50;;;;;;;-145.69;100.00;74264.84;5091633;28;20679;-77
2022/02/08 02:29:01;;;;;;;5.77;1.47;;;;;;;-145.69;100.00;74260.84;5092478;28;20206;-77
2022/02/08 02:31:28;;;;;;;6.50;1.53;;;;;;;-145.69;100.00;74252.91;5092989;28;20202;-77
2022/02/08 02:33:54;;;;;;;8.00;1.70;;;;;;;-145.69;100.00;74260.84;5092930;28;20280;-77
2022/02/08 02:36:21;;;;;;;10.63;1.37;;;;;;;-145.69;100.00;74262.84;5092718;28;20202;-77
2022/02/08 02:38:47;;;;;;;6.80;1.80;;;;;;;-145.69;100.00;74262.84;5092897;28;20204;-77
2022/02/08 02:41:15;;;;;;;10.33;1.53;;;;;;;-145.69;100.00;74264.84;5092593;28;20202;-77
2022/02/08 02:43:44;;;;;;;6.33;1.53;;;;;;;-145.69;100.00;74270.81;5092569;28;20210;-77
2022/02/08 02:46:10;;;;;;;9.63;1.70;;;;;;;-145.69;100.00;74264.84;5092825;28;20202;-77
2022/02/08 02:48:37;;;;;;;10.63;1.50;;;;;;;-145.69;100.00;74260.84;5092271;28;20198;-77
2022/02/08 02:51:03;;;;;;;6.17;1.37;;;;;;;-145.69;100.00;74260.84;5092560;28;20225;-77
2022/02/08 02:53:30;;;;;;;9.20;1.60;;;;;;;-145.69;100.00;74266.84;5092755;28;20194;-78
2022/02/08 02:55:56;;;;;;;9.20;1.80;;;;;;;-145.69;100.00;74276.78;5091961;28;20232;-78
2022/02/08 02:58:28;;;;;;;4.90;1.23;;;;;;;-145.69;100.00;74290.72;5092544;28;20202;-77
2022/02/08 03:01:10;;;;;;;5.37;1.63;;;;;;;-145.69;100.00;74284.75;5092515;28;20198;-78
2022/02/08 03:03:50;;;;;;;2.63;1.30;;;;;;;-145.69;100.00;74302.69;5092782;28;20265;-78
2022/02/08 03:19:55;;;;;;;7.90;1.60;;;;;;;-145.69;100.00;74334.53;5092544;28;20537;-78
2022/02/08 03:22:21;;;;;;;10.27;1.70;;;;;;;-145.69;100.00;74320.59;5092424;28;20233;-77
2022/02/08 03:24:48;;;;;;;9.53;1.70;;;;;;;-145.69;100.00;74332.53;5092144;28;20198;-77
2022/02/08 03:27:15;;;;;;;7.13;1.30;;;;;;;-145.69;100.00;74334.53;5095110;28;20198;-77
2022/02/08 03:29:43;;;;;;;3.90;1.60;;;;;;;-145.69;100.00;74334.53;5095617;28;20287;-77
2022/02/08 03:32:10;;;;;;;8.07;1.43;;;;;;;-145.69;100.00;74340.50;5095710;28;20215;-77
2022/02/08 03:34:36;;;;;;;4.73;1.77;;;;;;;-145.69;100.00;74344.50;5095397;28;20198;-77
2022/02/08 03:37:03;;;;;;;7.67;1.73;;;;;;;-145.69;100.00;74350.47;5096105;28;20201;-78
2022/02/08 03:39:35;;;;;;;11.43;1.60;;;;;;;-145.69;100.00;74352.47;5095411;28;20213;-78
2022/02/08 03:42:08;;;;;;;14.27;1.57;;;;;;;-145.69;100.00;74334.53;5095707;28;20218;-78
2022/02/08 03:44:35;;;;;;;8.03;2.17;;;;;;;-145.69;100.00;74320.59;5096063;28;20198;-78
2022/02/08 03:47:06;;;;;;;11.07;2.03;;;;;;;-145.69;100.00;74336.53;5095678;28;20198;-78
2022/02/08 03:49:33;;;;;;;13.13;1.73;;;;;;;-145.69;100.00;74352.47;5095626;28;20206;-77
2022/02/08 03:52:04;;;;;;;9.47;1.80;;;;;;;-145.69;100.00;74348.47;5095559;28;20198;-77
2022/02/08 03:54:31;;;;;;;4.73;1.50;;;;;;;-145.69;100.00;74342.50;5095170;28;20221;-77
2022/02/08 03:56:57;;;;;;;16.00;2.00;;;;;;;-145.69;100.00;74346.47;5094948;28;20581;-78
2022/02/08 03:59:24;;;;;;;13.13;2.10;;;;;;;-145.69;100.00;74350.47;5095679;28;20216;-78
2022/02/08 04:02:14;;;;;;;7.00;1.37;;;;;;;-145.69;100.00;74334.53;5095410;28;20307;-78
2022/02/08 04:04:52;;;;;;;8.20;1.70;;;;;;;-145.69;100.00;74316.63;5095550;28;20226;-77
2022/02/08 04:07:22;;;;;;;10.70;1.50;;;;;;;-145.69;100.00;74304.66;5095575;28;20193;-78
2022/02/08 04:09:51;;;;;;;11.60;1.77;;;;;;;-145.69;100.00;74288.75;5095234;28;20226;-78
2022/02/08 04:12:23;;;;;;;16.93;3.13;;;;;;;-145.69;100.00;74280.78;5095452;28;20206;-78
2022/02/08 04:14:55;;;;;;;11.83;1.83;;;;;;;-145.69;100.00;74286.75;5095392;28;20209;-77
2022/02/08 04:17:34;;;;;;;6.97;1.43;;;;;;;-145.69;100.00;74280.78;5095281;28;20259;-78
2022/02/08 04:31:23;;;;;;;11.67;2.07;;;;;;;-145.69;100.00;74280.78;5094785;28;20563;-78
2022/02/08 04:34:09;;;;;;;4.57;1.27;;;;;;;-145.69;100.00;74288.75;5094951;28;20286;-78
2022/02/08 04:37:04;;;;;;;3.23;1.47;;;;;;;-145.69;100.00;74308.66;5094474;28;20208;-78
2022/02/08 04:39:49;;;;;;;8.33;1.50;;;;;;;-145.69;100.00;74314.63;5095054;28;20206;-78
2022/02/08 04:42:21;;;;;;;11.77;1.70;;;;;;;-145.69;100.00;74320.59;5094573;28;20198;-78
2022/02/08 04:44:53;;;;;;;3.50;1.30;;;;;;;-145.69;100.00;74332.53;5094828;28;20230;-77
2022/02/08 04:47:24;;;;;;;7.60;1.50;;;;;;;-145.69;100.00;74336.53;5094862;28;20206;-78
2022/02/08 04:49:52;;;;;;;9.60;1.87;;;;;;;-145.69;100.00;74322.59;5094257;28;20205;-78
2022/02/08 04:52:22;;;;;;;13.60;1.90;;;;;;;-145.69;100.00;74320.59;5094492;28;20259;-78
2022/02/08 04:54:56;;;;;;;4.60;1.43;;;;;;;-145.69;100.00;74316.63;5093174;28;20209;-78
2022/02/08 04:57:28;;;;;;;9.20;1.83;;;;;;;-145.69;100.00;74324.59;5093954;28;20292;-78
2022/02/08 05:00:19;;;;;;;16.77;2.17;;;;;;;-145.69;100.00;74318.59;5093991;28;20286;-77
2022/02/08 05:35:41;;;;;;;6.07;1.80;;;;;;;-145.69;100.00;74197.13;5052110;28;20248;-77
2022/02/08 05:49:06;;;;;;;17.80;1.90;;;;;;;-145.69;100.00;74177.22;5071882;28;20202;-78
2022/02/08 05:51:56;;;;;;;14.27;2.57;;;;;;;-145.69;100.00;74175.22;5073139;28;20254;-78
2022/02/08 05:54:23;;;;;;;12.90;2.40;;;;;;;-145.69;100.00;74171.25;5073253;28;20256;-78
2022/02/08 05:56:54;;;;;;;11.00;2.33;;;;;;;-145.69;100.00;74155.31;5072951;28;20719;-78
2022/02/08 05:59:21;;;;;;;9.07;2.00;;;;;;;-145.69;100.00;74145.38;5073120;28;20195;-78
2022/02/08 06:01:48;;;;;;;20.80;2.17;;;;;;;-145.69;100.00;74135.41;5072981;28;20206;-78
2022/02/08 06:04:14;;;;;;;10.37;1.90;;;;;;;-145.69;100.00;74123.47;5072664;28;20205;-79
2022/02/08 06:06:41;;;;;;;10.13;2.40;;;;;;;-145.69;100.00;74119.47;5072905;28;20260;-78
2022/02/08 06:09:08;;;;;;;13.93;1.87;;;;;;;-145.69;100.00;74115.50;5073091;28;20199;-77
2022/02/08 06:11:37;;;;;;;9.40;2.20;;;;;;;-145.69;100.00;74129.44;5072443;28;20555;-78
2022/02/08 06:14:08;;;;;;;7.67;1.80;;;;;;;-145.69;100.00;74131.44;5072888;28;20198;-78
2022/02/08 06:16:39;;;;;;;11.17;1.60;;;;;;;-145.69;100.00;74125.44;5072600;28;20202;-78
2022/02/08 06:19:07;;;;;;;7.23;1.50;;;;;;;-145.69;100.00;74117.50;5072462;28;20229;-78
2022/02/08 06:21:34;;;;;;;9.70;1.87;;;;;;;-145.69;100.00;74093.59;5072647;28;20236;-79
2022/02/08 06:24:00;;;;;;;24.10;2.80;;;;;;;-145.69;100.00;74087.63;5087863;28;20723;-79
2022/02/08 06:26:28;;;;;;;14.50;2.10;;;;;;;-145.69;100.00;74093.59;5092038;28;20202;-78
2022/02/08 06:29:04;;;;;;;13.17;1.93;;;;;;;-145.69;100.00;74095.59;5093177;28;20209;-78
2022/02/08 06:31:34;;;;;;;14.40;1.73;;;;;;;-145.69;100.00;74097.56;5093241;28;20234;-78
2022/02/08 06:34:02;;;;;;;13.73;2.13;;;;;;;-145.69;100.00;74081.66;5092409;28;20201;-78
2022/02/08 06:36:29;;;;;;;7.90;2.40;;;;;;;-145.69;100.00;74075.69;5093180;28;20202;-78
2022/02/08 06:38:55;;;;;;;13.70;2.53;;;;;;;-145.69;100.00;74071.69;5092690;28;20198;-78
2022/02/08 06:41:26;;;;;;;5.80;1.47;;;;;;;-145.69;100.00;74071.69;5092414;28;20629;-78
2022/02/08 06:43:56;;;;;;;22.70;2.77;;;;;;;-145.69;100.00;74071.69;5092313;28;20634;-79
2022/02/08 06:46:25;;;;;;;280.70;99.53;;;;;;;-145.69;100.00;74065.72;5092703;28;20212;-78
2022/02/08 06:48:55;;;;;;;143.10;35.70;;;;;;;-145.69;100.00;74075.69;5092840;28;20656;-78
2022/02/08 06:51:22;;;;;;;14.10;3.43;;;;;;;-145.69;100.00;74077.66;5092329;28;20651;-78
2022/02/08 06:53:50;;;;;;;57.37;18.03;;;;;;;-145.69;100.00;74085.63;5092437;28;20204;-78
2022/02/08 06:56:18;;;;;;;33.30;9.10;;;;;;;-145.69;100.00;74089.63;5092877;28;20203;-78
2022/02/08 06:58:58;;;;;;;20.43;7.00;;;;;;;-145.69;100.00;74081.66;5092792;28;20242;-78
2022/02/08 07:01:28;;;;;;;28.27;7.90;;;;;;;-145.69;100.00;74071.69;5095486;28;20205;-78
2022/02/08 07:03:55;;;;;;;19.40;4.07;;;;;;;-145.69;100.00;74063.72;5096146;28;20202;-77
2022/02/08 07:06:24;;;;;;;17.53;2.57;;;;;;;-145.69;100.00;74057.75;5096440;28;20198;-78
2022/02/08 07:08:55;;;;;;;14.83;3.83;;;;;;;-145.69;100.00;74061.72;5096619;28;20201;-78
2022/02/08 07:11:22;;;;;;;10.60;2.53;;;;;;;-145.69;100.00;74057.75;5096141;28;20742;-79
2022/02/08 07:13:49;;;;;;;11.63;2.50;;;;;;;-145.69;100.00;74057.75;5096667;28;20194;-78
2022/02/08 07:16:16;;;;;;;17.57;2.10;;;;;;;-145.69;100.00;74065.72;5096284;28;20208;-78
2022/02/08 07:18:46;;;;;;;21.90;4.13;;;;;;;-145.69;100.00;74053.78;5096266;28;20194;-78
2022/02/08 07:21:14;;;;;;;10.47;1.60;;;;;;;-145.69;100.00;74049.78;5096111;28;20194;-79
2022/02/08 07:23:40;;;;;;;15.13;2.57;;;;;;;-145.69;100.00;74033.84;5096256;28;20691;-79
2022/02/08 07:26:07;;;;;;;12.83;2.00;;;;;;;-145.69;100.00;74033.84;5095778;28;20198;-79
2022/02/08 07:28:41;;;;;;;13.83;2.40;;;;;;;-145.69;100.00;74013.94;5095790;28;20634;-78
2022/02/08 07:31:16;;;;;;;24.27;2.63;;;;;;;-145.69;100.00;74009.97;5096241;28;20270;-77
2022/02/08 07:33:49;;;;;;;14.80;2.67;;;;;;;-145.69;100.00;74011.97;5096490;28;20194;-78
2022/02/08 07:36:26;;;;;;;27.17;2.43;;;;;;;-145.69;100.00;73998.03;5095815;28;20664;-78
2022/02/08 07:38:53;;;;;;;12.60;2.13;;;;;;;-145.69;100.00;73994.03;5096369;28;20198;-77
2022/02/08 07:41:39;;;;;;;13.53;2.50;;;;;;;-145.69;100.00;73990.06;5095885;28;20214;-77
2022/02/08 07:44:07;;;;;;;11.97;1.97;;;;;;;-145.69;100.00;73990.06;5096470;28;20202;-78
2022/02/08 07:46:34;;;;;;;15.90;2.77;;;;;;;-145.69;100.00;73994.03;5096099;28;20199;-78
2022/02/08 07:49:03;;;;;;;14.23;2.47;;;;;;;-145.69;100.00;73988.06;5096212;28;20206;-77
2022/02/08 07:51:32;;;;;;;9.97;2.20;;;;;;;-145.69;100.00;73984.09;5095961;28;20313;-78
2022/02/08 07:53:59;;;;;;;13.33;1.80;;;;;;;-145.69;100.00;73960.19;5095742;28;20594;-78
2022/02/08 07:56:25;;;;;;;12.70;2.00;;;;;;;-145.69;100.00;73948.25;5095787;28;20688;-77
2022/02/08 07:58:54;;;;;;;5.53;1.87;;;;;;;-145.69;100.00;73950.22;5096000;28;20255;-77
2022/02/08 08:01:22;;;;;;;12.00;2.50;;;;;;;-145.69;100.00;73938.28;5096189;28;20205;-77
2022/02/08 08:03:48;;;;;;;12.70;2.00;;;;;;;-145.69;100.00;73940.28;5099468;28;20273;-80
2022/02/08 08:06:17;;;;;;;11.97;3.60;;;;;;;-145.69;100.00;73926.34;5095933;28;20568;-79
2022/02/08 08:08:45;;;;;;;10.77;1.90;;;;;;;-145.69;100.00;73910.41;5095687;28;20198;-79
2022/02/08 08:11:15;;;;;;;9.63;1.87;;;;;;;-145.69;100.00;73858.63;5095487;28;20233;-79
2022/02/08 08:13:48;;;;;;;11.00;1.90;;;;;;;-145.69;100.00;73862.63;5095779;28;20202;-79
2022/02/08 08:16:20;;;;;;;15.10;1.90;;;;;;;-145.69;100.00;73862.63;5095612;28;20625;-79
2022/02/08 08:18:59;;;;;;;12.27;1.80;;;;;;;-145.69;100.00;73826.78;5095484;28;20233;-79
2022/02/08 08:21:26;;;;;;;19.57;1.90;;;;;;;-145.69;100.00;73796.91;5095406;28;20572;-79
2022/02/08 08:23:54;;;;;;;13.10;1.97;;;;;;;-145.69;100.00;73777.00;5095381;28;20244;-79
2022/02/08 08:26:21;;;;;;;10.53;1.60;;;;;;;-145.69;100.00;73759.09;5095830;28;20210;-79
2022/02/08 08:28:48;;;;;;;14.47;1.63;;;;;;;-145.69;100.00;73711.31;5095750;28;20206;-79
2022/02/08 08:31:15;;;;;;;10.27;1.80;;;;;;;-145.69;100.00;73699.34;5095560;28;20229;-79
2022/02/08 08:33:41;;;;;;;6.00;1.50;;;;;;;-145.69;100.00;73747.13;5095277;28;20194;-79
2022/02/08 08:36:09;;;;;;;6.90;2.10;;;;;;;-145.69;100.00;73733.19;5095501;28;20205;-78
2022/02/08 08:38:35;;;;;;;8.50;1.57;;;;;;;-145.69;100.00;73767.06;5095207;28;20198;-79
2022/02/08 08:41:10;;;;;;;8.60;2.77;;;;;;;-145.69;100.00;73804.88;5095015;28;20197;-79
2022/02/08 08:43:57;;;;;;;3.60;1.20;;;;;;;-145.69;100.00;73850.69;5094937;28;20530;-79
2022/02/08 08:49:24;;;;;;;4.70;0.97;;;;;;;-145.69;100.00;73862.63;5094201;28;20201;-78
2022/02/08 08:51:53;;;;;;;10.67;1.30;;;;;;;-145.69;100.00;73842.72;5094871;28;20279;-79
2022/02/08 08:54:20;;;;;;;5.63;1.30;;;;;;;-145.69;100.00;73838.72;5094971;28;20251;-78
2022/02/08 08:56:50;;;;;;;5.07;0.97;;;;;;;-145.69;100.00;73822.81;5094201;28;20194;-79
2022/02/08 08:59:18;;;;;;;4.47;1.10;;;;;;;-145.69;100.00;73802.88;5093952;28;20233;-79
2022/02/08 09:01:44;;;;;;;9.07;1.50;;;;;;;-145.69;100.00;73824.78;5093486;28;20213;-79
2022/02/08 09:04:11;;;;;;;8.03;1.20;;;;;;;-145.69;100.00;73846.69;5094353;28;20247;-78
2022/02/08 09:06:39;;;;;;;6.63;1.37;;;;;;;-145.69;100.00;73854.66;5091693;28;20243;-77
2022/02/08 09:09:10;;;;;;;8.13;1.37;;;;;;;-145.69;100.00;73852.66;5094187;28;20202;-77
2022/02/08 09:11:51;;;;;;;6.87;1.20;;;;;;;-145.69;100.00;73858.63;5094159;28;20802;-78
2022/02/08 09:14:24;;;;;;;7.00;1.37;;;;;;;-145.69;100.00;73854.66;5093861;28;20704;-77
2022/02/08 09:16:59;;;;;;;3.83;1.30;;;;;;;-145.69;100.00;73834.75;5094639;28;20210;-76
2022/02/08 09:19:51;;;;;;;5.73;1.33;;;;;;;-145.69;100.00;73828.78;5094305;28;20197;-76
2022/02/08 09:22:31;;;;;;;7.53;1.43;;;;;;;-145.69;100.00;73814.84;5094102;28;20319;-77
2022/02/08 09:25:11;;;;;;;8.97;1.90;;;;;;;-145.69;100.00;73784.97;5093265;28;20280;-79
2022/02/08 09:27:51;;;;;;;6.53;1.37;;;;;;;-145.69;100.00;73777.00;5093722;28;20655;-79
2022/02/08 09:30:29;;;;;;;8.53;1.20;;;;;;;-145.69;100.00;73779.00;5094455;28;20588;-77
2022/02/08 09:32:56;;;;;;;3.17;1.00;;;;;;;-145.69;100.00;73771.03;5093556;28;20225;-78
2022/02/08 09:35:22;;;;;;;3.57;1.10;;;;;;;-145.69;100.00;73769.03;5093924;28;20251;-78
2022/02/08 09:37:49;;;;;;;1.77;0.90;;;;;;;-145.69;100.00;73763.06;5093894;28;20210;-76
2022/02/08 09:40:18;;;;;;;3.03;1.17;;;;;;;-145.69;100.00;73741.16;5093471;28;20213;-77
2022/02/08 09:42:44;;;;;;;4.00;1.23;;;;;;;-145.69;100.00;73691.38;5093085;28;20685;-77
2022/02/08 09:45:16;;;;;;;2.57;1.00;;;;;;;-145.69;100.00;73679.44;5093506;28;20209;-76
2022/02/08 09:47:51;;;;;;;6.10;2.10;;;;;;;-145.69;100.00;73675.47;5086828;28;20195;-77
2022/02/08 09:50:21;;;;;;;148.27;12.47;;;;;;;-145.69;100.00;73679.44;5073152;28;20240;-76
2022/02/08 09:52:51;;;;;;;8.27;1.57;;;;;;;-145.69;100.00;73703.34;5072960;28;20243;-77
2022/02/08 09:55:18;;;;;;;5.23;1.10;;;;;;;-145.69;100.00;73711.31;5072933;28;20688;-77
2022/02/08 09:57:45;;;;;;;5.00;1.17;;;;;;;-145.69;100.00;73727.22;5072991;28;20669;-76
2022/02/08 10:00:13;;;;;;;1.60;0.90;;;;;;;-145.69;100.00;73723.25;5082222;28;20552;-76
2022/02/08 10:02:39;;;;;;;7.13;1.20;;;;;;;-145.69;100.00;73715.28;5093186;28;20209;-77
2022/02/08 10:05:09;;;;;;;2.50;1.23;;;;;;;-145.69;100.00;73695.38;5092954;28;20206;-76
2022/02/08 10:07:36;;;;;;;3.10;1.10;;;;;;;-145.69;100.00;73691.38;5093421;28;20255;-76
2022/02/08 10:10:05;;;;;;;2.70;0.83;;;;;;;-145.69;100.00;73683.44;5093131;28;20667;-76
2022/02/08 10:13:12;;;;;;;3.80;1.10;;;;;;;-145.69;100.00;73667.50;5093231;28;20230;-78
2022/02/08 10:23:56;;;;;;;1.17;0.77;;;;;;;-145.69;100.00;73631.66;5082487;28;20318;-76
2022/02/08 10:26:27;;;;;;;4.97;1.10;;;;;;;-145.69;100.00;73615.72;5092865;28;20240;-77
2022/02/08 10:28:56;;;;;;;3.97;1.13;;;;;;;-145.69;100.00;73609.75;5093215;28;20201;-77
2022/02/08 10:39:47;;;;;;;7.53;1.40;;;;;;;-145.69;100.00;73516.19;5092983;28;20709;-78
2022/02/08 10:42:16;;;;;;;6.43;1.50;;;;;;;-145.69;100.00;73498.28;5093082;28;20298;-78
2022/02/08 10:44:43;;;;;;;3.80;1.40;;;;;;;-145.69;100.00;73466.41;5092679;28;20202;-78
2022/02/08 10:47:09;;;;;;;5.50;1.67;;;;;;;-145.69;100.00;73472.38;5092468;28;20194;-78
2022/02/08 10:49:37;;;;;;;6.97;1.27;;;;;;;-145.69;100.00;73446.50;5092970;28;20209;-78
2022/02/08 10:52:09;;;;;;;5.40;1.40;;;;;;;-145.69;100.00;73442.53;5092689;28;20317;-78
2022/02/08 10:54:41;;;;;;;3.63;1.20;;;;;;;-145.69;100.00;73390.75;5093071;28;20228;-78
2022/02/08 10:57:13;;;;;;;3.53;1.10;;;;;;;-145.69;100.00;73348.97;5092923;28;20550;-79
2022/02/08 10:59:47;;;;;;;3.13;1.20;;;;;;;-145.69;100.00;73295.19;5092658;28;20229;-79
2022/02/08 11:02:21;;;;;;;8.03;1.73;;;;;;;-145.69;100.00;73213.56;5092548;28;20194;-78
2022/02/08 11:04:52;;;;;;;3.93;0.93;;;;;;;-145.69;99.61;73191.69;5092755;28;20209;-78
2022/02/08 11:07:45;;;;;;;5.07;1.60;;;;;;;-145.69;91.64;73169.78;5092580;28;20588;-77
2022/02/08 11:10:26;;;;;;;6.73;1.27;;;;;;;-145.69;91.30;73213.56;5092439;28;20251;-77
2022/02/08 11:13:00;;;;;;;5.40;1.13;;;;;;;-145.69;89.09;73225.53;5092593;28;20221;-77
2022/02/08 11:15:40;;;;;;;3.57;1.23;;;;;;;-145.69;93.80;73231.50;5092571;28;20229;-77
2022/02/08 11:18:30;;;;;;;2.83;1.27;;;;;;;-145.69;96.85;73267.34;5092234;28;20202;-77
2022/02/08 11:21:08;;;;;;;3.73;1.40;;;;;;;-145.69;96.85;73249.41;5092567;28;20198;-76
2022/02/08 11:23:37;;;;;;;1.43;1.10;;;;;;;-145.69;94.70;73245.44;5092723;28;20229;-77
2022/02/08 11:26:03;;;;;;;1.93;1.20;;;;;;;-145.69;94.98;73217.56;5092564;28;20285;-78
2022/02/08 11:28:41;;;;;;;4.03;1.83;;;;;;;-145.69;93.52;73207.59;5092131;28;20209;-77
2022/02/08 11:31:18;;;;;;;2.20;1.23;;;;;;;-145.69;98.96;73225.53;5092788;28;20202;-78
2022/02/08 11:38:57;;;;;;;2.03;0.83;;;;;;;-145.69;96.16;73227.50;5092407;28;20229;-78
2022/02/08 11:45:42;;;;;;;3.33;0.87;;;;;;;-145.69;94.37;73189.69;5092316;28;20324;-78
2022/02/08 11:48:30;;;;;;;2.77;0.90;;;;;;;-145.69;94.28;73159.84;5094277;28;20553;-76
2022/02/08 11:51:19;;;;;;;3.13;0.80;;;;;;;-145.69;93.61;73149.88;5096095;28;20732;-78
2022/02/08 11:54:01;;;;;;;1.90;0.90;;;;;;;-145.69;93.40;73133.94;5095608;28;20884;-79
2022/02/08 11:56:50;;;;;;;3.00;0.80;;;;;;;-145.69;94.76;73139.91;5095804;28;20671;-78
2022/02/08 11:59:28;;;;;;;2.20;0.60;;;;;;;-145.69;93.29;73133.94;5096140;28;20194;-79
2022/02/08 12:02:38;;;;;;;2.03;1.00;;;;;;;-145.69;93.90;73078.22;5095497;28;20213;-78
2022/02/08 12:05:10;;;;;;;1.70;0.90;;;;;;;-145.69;87.43;72980.66;5095023;28;20190;-79
2022/02/08 12:07:37;;;;;;;3.40;0.97;;;;;;;-145.69;86.84;72899.06;5095853;28;20289;-79
2022/02/08 12:10:17;;;;;;;1.90;0.83;;;;;;;-145.69;78.43;72901.03;5095241;28;20205;-79
2022/02/08 12:32:38;;;;;;;2.30;0.87;;;;;;;-145.69;74.72;72887.09;5012846;28;20311;-79
2022/02/08 12:54:53;;;;;;;2.97;1.03;;;;;;;-145.69;78.36;72954.78;5094367;28;20217;-78
2022/02/08 12:57:30;;;;;;;2.33;0.67;;;;;;;-145.69;83.24;72966.72;5094338;28;20667;-78
2022/02/08 13:00:14;;;;;;;3.00;0.93;;;;;;;-145.69;81.94;72948.81;5094530;28;20285;-78
2022/02/08 13:03:04;;;;;;;4.77;1.20;;;;;;;-145.69;74.48;72907.00;5094784;28;20194;-78
2022/02/08 14:03:51;;;;;;;2.70;1.07;;;;;;;-145.69;76.16;72887.09;5093017;28;20200;-78
2022/02/08 14:06:21;;;;;;;3.27;1.03;;;;;;;-145.69;79.51;72875.16;5092941;28;20198;-79
2022/02/08 14:11:55;;;;;;;3.03;1.40;;;;;;;-145.69;79.84;72887.09;5087507;28;20201;-79
2022/02/08 14:22:52;;;;;;;8.07;2.90;;;;;;;-145.69;82.20;72839.34;5092341;28;20248;-79
2022/02/08 14:25:26;;;;;;;4.23;1.40;;;;;;;-145.69;79.10;72863.22;5092877;28;20599;-79
2022/02/08 14:30:43;;;;;;;4.73;1.90;;;;;;;-145.69;79.95;72823.41;5093088;28;20277;-81
2022/02/08 14:33:27;;;;;;;8.77;2.80;;;;;;;-145.69;84.03;72849.28;5092964;28;20234;-80
2022/02/08 14:36:07;;;;;;;6.07;2.80;;;;;;;-145.69;82.64;72903.03;5093016;28;20284;-80
2022/02/08 15:06:16;;;;;;;2.23;1.40;;;;;;;-145.69;100.00;73022.47;5092540;28;20203;-78
2022/02/08 15:08:43;;;;;;;2.63;1.27;;;;;;;-145.69;92.24;73000.56;5092672;28;20202;-79
2022/02/08 15:11:12;;;;;;;4.17;1.40;;;;;;;-145.69;91.54;72994.59;5092633;28;20198;-78
2022/02/08 15:13:44;;;;;;;6.30;1.30;;;;;;;-145.69;90.50;72978.69;5092480;28;20283;-78
2022/02/08 15:16:23;;;;;;;2.23;0.90;;;;;;;-145.69;89.31;72976.69;5093155;28;20202;-78
2022/02/08 15:18:49;;;;;;;4.23;1.50;;;;;;;-145.69;91.23;72982.66;5092503;28;20194;-78
2022/02/08 15:21:20;;;;;;;0.80;0.70;;;;;;;-145.69;91.48;72974.69;5092451;28;20209;-77
2022/02/08 15:23:46;;;;;;;2.80;0.70;;;;;;;-145.69;92.98;72974.69;5095906;28;20242;-79